Time;durP1;ratioP1;P1;durP2;ratioP2;P2;SDS_P1;SDS_P2;PMS_P1;PMS_P2;Temp;Humidity;BMP_temperature;BMP_pressure;BME280_temperature;BME280_humidity;BME280_pressure;Samples;Min_cycle;Max_cycle;Signal;HPM_P1;HPM_P2
2023/09/17 00:02:16;;;;;;;7.85;4.13;;;19.70;85.50;;;;;;4972895;28;20049;-64
2023/09/17 00:04:42;;;;;;;4.78;4.32;;;19.70;85.50;;;;;;4971796;28;20081;-64
2023/09/17 00:07:09;;;;;;;4.40;4.00;;;19.70;85.40;;;;;;4973154;28;20104;-63
2023/09/17 00:09:35;;;;;;;4.60;4.20;;;19.70;85.40;;;;;;4976401;28;20429;-64
2023/09/17 00:12:00;;;;;;;4.25;3.80;;;19.70;85.30;;;;;;4972070;28;20039;-64
2023/09/17 00:14:26;;;;;;;4.85;4.30;;;19.60;85.50;;;;;;4972423;28;20089;-64
2023/09/17 00:16:52;;;;;;;5.97;4.10;;;19.60;85.60;;;;;;4974136;28;20117;-64
2023/09/17 00:22:40;;;;;;;6.40;4.30;;;19.50;85.90;;;;;;4975743;28;20093;-64
2023/09/17 00:25:06;;;;;;;5.00;4.53;;;19.40;85.50;;;;;;4976567;28;20050;-64
2023/09/17 00:27:32;;;;;;;6.30;5.28;;;19.40;85.60;;;;;;4975565;28;20126;-64
2023/09/17 00:29:58;;;;;;;5.25;4.75;;;19.40;85.70;;;;;;4975569;28;20058;-64
2023/09/17 00:32:24;;;;;;;5.60;4.82;;;19.40;85.70;;;;;;4974964;28;20069;-64
2023/09/17 00:34:50;;;;;;;5.25;4.70;;;19.40;85.90;;;;;;4950993;28;20118;-64
2023/09/17 00:37:16;;;;;;;6.35;4.97;;;19.30;85.80;;;;;;4960945;28;20043;-64
2023/09/17 00:39:41;;;;;;;6.38;4.60;;;19.30;85.80;;;;;;4969420;28;20116;-64
2023/09/17 00:42:07;;;;;;;6.97;4.85;;;19.30;85.70;;;;;;4969604;28;20558;-64
2023/09/17 00:44:33;;;;;;;6.00;4.75;;;19.30;85.90;;;;;;4967014;28;20578;-64
2023/09/17 00:47:02;;;;;;;5.95;5.07;;;19.20;85.80;;;;;;4969886;28;20637;-62
2023/09/17 00:49:28;;;;;;;5.05;4.60;;;19.20;85.90;;;;;;4970073;28;20030;-63
2023/09/17 00:51:54;;;;;;;4.82;4.32;;;19.10;86.00;;;;;;4968769;28;20049;-64
2023/09/17 00:54:23;;;;;;;4.63;4.22;;;19.10;86.10;;;;;;4972761;28;20046;-64
2023/09/17 00:56:51;;;;;;;5.10;4.60;;;19.10;86.30;;;;;;4969978;28;20043;-64
2023/09/17 00:59:17;;;;;;;4.90;4.40;;;19.00;86.10;;;;;;4972520;28;20038;-64
2023/09/17 01:01:43;;;;;;;4.90;4.50;;;18.90;86.20;;;;;;4957513;28;20027;-64
2023/09/17 01:04:10;;;;;;;6.05;4.70;;;18.90;86.30;;;;;;4954777;28;20126;-64
2023/09/17 01:06:38;;;;;;;5.00;4.50;;;18.90;86.50;;;;;;4945066;28;20514;-64
2023/09/17 01:09:05;;;;;;;5.45;4.45;;;18.80;86.60;;;;;;4969310;28;20026;-64
2023/09/17 01:11:30;;;;;;;6.28;4.32;;;18.80;86.60;;;;;;4968670;28;20387;-64
2023/09/17 01:14:08;;;;;;;5.07;4.68;;;18.70;86.60;;;;;;4975140;28;20046;-63
2023/09/17 01:16:34;;;;;;;4.32;4.00;;;18.70;86.70;;;;;;4972741;28;20422;-64
2023/09/17 01:19:00;;;;;;;4.88;4.38;;;18.70;86.80;;;;;;4964679;28;20061;-64
2023/09/17 01:21:38;;;;;;;5.03;4.47;;;18.60;86.90;;;;;;4973718;28;20043;-64
2023/09/17 01:24:40;;;;;;;5.75;4.53;;;18.60;87.40;;;;;;4974015;28;20026;-64
2023/09/17 01:27:07;;;;;;;7.38;4.28;;;18.60;88.20;;;;;;4950246;28;20109;-64
2023/09/17 01:29:43;;;;;;;4.43;4.07;;;18.50;87.10;;;;;;4974462;28;20118;-64
2023/09/17 01:32:11;;;;;;;4.70;4.30;;;18.40;87.60;;;;;;4975469;28;20449;-64
2023/09/17 01:34:41;;;;;;;5.13;4.10;;;18.40;87.30;;;;;;4971294;28;20031;-63
2023/09/17 01:37:31;;;;;;;4.88;4.28;;;18.40;87.50;;;;;;4972468;28;20035;-64
2023/09/17 01:40:00;;;;;;;4.63;4.20;;;18.40;87.90;;;;;;4957201;28;20038;-63
2023/09/17 01:42:27;;;;;;;5.30;4.80;;;18.40;87.40;;;;;;4947580;28;20126;-64
2023/09/17 01:44:55;;;;;;;5.30;4.90;;;18.30;87.30;;;;;;4971015;28;20065;-64
2023/09/17 01:47:22;;;;;;;5.88;5.18;;;18.30;87.40;;;;;;4967584;28;20049;-63
2023/09/17 01:49:48;;;;;;;5.47;4.97;;;18.30;87.50;;;;;;4968142;28;20035;-64
2023/09/17 01:52:14;;;;;;;5.68;5.18;;;18.30;87.70;;;;;;4968489;28;20513;-64
2023/09/17 01:54:41;;;;;;;5.90;5.40;;;18.30;87.60;;;;;;4967574;28;20089;-63
2023/09/17 01:57:08;;;;;;;6.57;5.78;;;18.20;87.60;;;;;;4967336;28;20043;-64
2023/09/17 01:59:33;;;;;;;6.30;5.30;;;18.30;87.80;;;;;;4970192;28;20038;-64
2023/09/17 02:02:00;;;;;;;5.50;5.03;;;18.20;87.80;;;;;;4972268;28;20034;-64
2023/09/17 02:04:26;;;;;;;5.70;5.20;;;18.20;87.80;;;;;;4972215;28;20034;-64
2023/09/17 02:06:53;;;;;;;6.63;5.13;;;18.20;87.80;;;;;;4974874;28;20462;-64
2023/09/17 02:09:20;;;;;;;6.13;5.20;;;18.20;87.60;;;;;;4969665;28;20187;-64
2023/09/17 02:11:46;;;;;;;6.03;5.53;;;18.20;87.50;;;;;;4972155;28;20042;-64
2023/09/17 02:14:12;;;;;;;6.47;5.38;;;18.20;87.40;;;;;;4966999;28;20331;-64
2023/09/17 02:16:38;;;;;;;5.78;5.28;;;18.20;87.30;;;;;;4969833;28;20503;-64
2023/09/17 02:19:03;;;;;;;6.65;5.97;;;18.20;87.30;;;;;;4970997;28;20042;-63
2023/09/17 02:21:29;;;;;;;6.28;5.68;;;18.00;87.40;;;;;;4969153;28;20451;-64
2023/09/17 02:23:54;;;;;;;6.65;5.95;;;18.10;87.70;;;;;;4969231;28;20240;-64
2023/09/17 02:26:21;;;;;;;7.88;6.30;;;18.00;87.80;;;;;;4970973;28;20125;-64
2023/09/17 02:28:47;;;;;;;6.80;6.07;;;18.00;88.00;;;;;;4970699;28;20042;-63
2023/09/17 02:31:13;;;;;;;7.25;6.10;;;18.00;88.10;;;;;;4968625;28;20035;-64
2023/09/17 02:33:40;;;;;;;8.20;6.28;;;18.00;88.10;;;;;;4968809;28;20049;-64
2023/09/17 02:36:06;;;;;;;6.63;6.03;;;18.00;88.30;;;;;;4975092;28;20126;-64
2023/09/17 02:38:31;;;;;;;6.78;6.18;;;18.00;88.50;;;;;;4970886;28;20129;-64
2023/09/17 02:40:57;;;;;;;6.30;5.70;;;18.00;88.60;;;;;;4970773;28;20035;-62
2023/09/17 02:43:22;;;;;;;6.80;6.18;;;18.00;88.60;;;;;;4965014;28;20055;-64
2023/09/17 02:45:49;;;;;;;7.07;6.30;;;18.00;88.60;;;;;;4970090;28;20093;-64
2023/09/17 02:48:15;;;;;;;6.57;5.90;;;18.00;88.70;;;;;;4966742;28;20045;-64
2023/09/17 02:50:41;;;;;;;6.50;5.90;;;18.00;88.70;;;;;;4968842;28;20581;-64
2023/09/17 02:53:07;;;;;;;8.65;6.25;;;18.10;88.90;;;;;;4965820;28;20138;-63
2023/09/17 02:55:35;;;;;;;7.25;6.32;;;18.10;89.00;;;;;;4970901;28;20093;-64
2023/09/17 02:58:04;;;;;;;8.57;6.15;;;18.10;89.00;;;;;;4967786;28;20038;-64
2023/09/17 03:00:33;;;;;;;7.40;6.70;;;18.10;89.20;;;;;;4963887;28;20036;-64
2023/09/17 03:02:59;;;;;;;6.47;5.88;;;18.10;89.60;;;;;;4970334;28;20042;-64
2023/09/17 03:05:24;;;;;;;7.28;6.28;;;18.10;89.50;;;;;;4972326;28;20868;-63
2023/09/17 03:07:50;;;;;;;7.63;6.03;;;18.10;89.70;;;;;;4970443;28;20518;-63
2023/09/17 03:10:18;;;;;;;8.52;6.80;;;18.10;89.60;;;;;;4973442;28;20045;-63
2023/09/17 03:12:46;;;;;;;9.02;6.50;;;18.00;89.50;;;;;;4974473;28;20039;-64
2023/09/17 03:15:15;;;;;;;6.60;6.00;;;18.00;90.20;;;;;;4970036;28;20057;-63
2023/09/17 03:17:44;;;;;;;6.72;6.13;;;18.10;89.70;;;;;;4978083;28;20045;-64
2023/09/17 03:20:22;;;;;;;6.45;5.60;;;18.10;89.60;;;;;;4974180;28;20042;-64
2023/09/17 03:22:48;;;;;;;6.13;5.53;;;18.10;89.50;;;;;;4976082;28;20061;-63
2023/09/17 03:25:14;;;;;;;6.35;5.75;;;18.10;89.50;;;;;;4974195;28;20038;-63
2023/09/17 03:27:46;;;;;;;6.60;5.95;;;18.10;89.50;;;;;;4976945;28;20035;-64
2023/09/17 03:30:13;;;;;;;6.78;6.07;;;18.10;89.40;;;;;;4969362;28;20039;-63
2023/09/17 03:32:38;;;;;;;6.47;5.82;;;18.10;89.60;;;;;;4975304;28;20042;-63
2023/09/17 03:35:06;;;;;;;8.13;6.05;;;18.10;89.30;;;;;;4973871;28;20054;-64
2023/09/17 03:37:31;;;;;;;6.40;5.80;;;18.10;89.50;;;;;;4974345;28;20103;-63
2023/09/17 03:40:07;;;;;;;6.70;6.00;;;18.10;89.60;;;;;;4975603;28;20123;-63
2023/09/17 03:42:34;;;;;;;9.35;6.93;;;18.10;90.30;;;;;;4970064;28;20092;-64
2023/09/17 03:45:00;;;;;;;7.70;6.90;;;18.10;89.70;;;;;;4969499;28;20042;-63
2023/09/17 03:47:26;;;;;;;7.20;6.53;;;18.10;89.90;;;;;;4975452;28;20042;-64
2023/09/17 03:49:52;;;;;;;7.50;6.70;;;18.10;90.00;;;;;;4970981;28;20031;-62
2023/09/17 03:52:17;;;;;;;7.63;6.93;;;18.10;90.00;;;;;;4977722;28;20045;-63
2023/09/17 03:54:43;;;;;;;7.53;6.75;;;18.10;90.10;;;;;;4979231;28;20040;-64
2023/09/17 03:57:08;;;;;;;7.40;6.65;;;18.20;90.10;;;;;;4979365;28;20058;-63
2023/09/17 03:59:34;;;;;;;7.80;6.55;;;18.20;90.10;;;;;;4978836;28;20084;-63
2023/09/17 04:01:59;;;;;;;7.10;6.47;;;18.20;90.10;;;;;;4976883;28;20245;-64
2023/09/17 04:04:25;;;;;;;8.65;6.90;;;18.20;90.00;;;;;;4975131;28;20089;-64
2023/09/17 04:06:51;;;;;;;7.38;6.68;;;18.20;90.00;;;;;;4974537;28;20041;-63
2023/09/17 04:09:17;;;;;;;9.50;7.22;;;18.30;90.10;;;;;;4974354;28;20063;-64
2023/09/17 04:11:43;;;;;;;8.13;7.32;;;18.30;90.10;;;;;;4971539;28;20035;-64
2023/09/17 04:14:09;;;;;;;8.38;7.50;;;18.30;90.10;;;;;;4971366;28;20066;-64
2023/09/17 04:16:35;;;;;;;7.70;6.82;;;18.30;90.20;;;;;;4967597;28;20609;-63
2023/09/17 04:19:00;;;;;;;7.63;6.90;;;18.30;90.20;;;;;;4974334;28;20042;-64
2023/09/17 04:21:26;;;;;;;8.52;7.22;;;18.30;90.20;;;;;;4971597;28;20130;-64
2023/09/17 04:23:52;;;;;;;7.60;6.80;;;18.30;90.20;;;;;;4971580;28;20035;-64
2023/09/17 04:26:19;;;;;;;7.88;7.07;;;18.30;90.30;;;;;;4971637;28;20430;-64
2023/09/17 04:28:46;;;;;;;8.48;7.65;;;18.30;90.30;;;;;;4970707;28;20130;-64
2023/09/17 04:31:11;;;;;;;8.68;7.60;;;18.30;90.30;;;;;;4971194;28;20105;-63
2023/09/17 04:33:37;;;;;;;9.15;7.38;;;18.30;90.30;;;;;;4972721;28;20775;-63
2023/09/17 04:36:03;;;;;;;8.02;7.18;;;18.30;90.30;;;;;;4972840;28;20034;-64
2023/09/17 04:38:29;;;;;;;8.20;7.32;;;18.40;90.20;;;;;;4969087;28;20042;-64
2023/09/17 04:40:55;;;;;;;7.53;6.80;;;18.40;90.20;;;;;;4972271;28;20035;-64
2023/09/17 04:43:22;;;;;;;7.20;6.50;;;18.40;90.20;;;;;;4969573;28;20073;-63
2023/09/17 04:45:48;;;;;;;7.60;6.90;;;18.40;90.10;;;;;;4972287;28;20461;-63
2023/09/17 04:48:16;;;;;;;8.02;7.22;;;18.50;90.10;;;;;;4970664;28;20026;-64
2023/09/17 04:50:43;;;;;;;7.93;7.15;;;18.40;90.00;;;;;;4973068;28;20169;-64
2023/09/17 04:53:10;;;;;;;7.72;6.95;;;18.50;90.00;;;;;;4967940;28;20537;-64
2023/09/17 04:55:36;;;;;;;9.30;7.15;;;18.50;90.00;;;;;;4974203;28;20039;-64
2023/09/17 04:58:02;;;;;;;8.23;7.45;;;18.50;90.00;;;;;;4972246;28;20533;-64
2023/09/17 05:00:28;;;;;;;9.07;8.13;;;18.50;90.00;;;;;;4969068;28;20050;-64
2023/09/17 05:02:54;;;;;;;9.65;8.68;;;18.50;90.00;;;;;;4973860;28;20034;-64
2023/09/17 05:05:20;;;;;;;10.48;8.85;;;18.50;89.90;;;;;;4976977;28;20042;-64
2023/09/17 05:07:47;;;;;;;9.85;8.70;;;18.50;90.00;;;;;;4976536;28;20038;-63
2023/09/17 05:10:14;;;;;;;9.95;8.32;;;18.50;90.00;;;;;;4975583;28;20069;-63
2023/09/17 05:12:41;;;;;;;9.18;8.23;;;18.60;90.10;;;;;;4975512;28;20093;-64
2023/09/17 05:15:06;;;;;;;9.10;8.18;;;18.60;90.20;;;;;;4975347;28;20038;-65
2023/09/17 05:17:32;;;;;;;8.82;7.97;;;18.60;90.20;;;;;;4975047;28;20681;-63
2023/09/17 05:19:58;;;;;;;8.65;7.78;;;18.60;90.60;;;;;;4971140;28;20034;-64
2023/09/17 05:22:23;;;;;;;10.90;8.43;;;18.60;90.20;;;;;;4973743;28;20084;-64
2023/09/17 05:24:49;;;;;;;8.13;7.35;;;18.60;90.30;;;;;;4970916;28;20049;-64
2023/09/17 05:27:14;;;;;;;8.10;7.30;;;18.60;90.30;;;;;;4970851;28;20478;-64
2023/09/17 05:29:41;;;;;;;8.55;7.68;;;18.60;90.30;;;;;;4966792;28;20393;-62
2023/09/17 05:32:06;;;;;;;8.15;7.35;;;18.60;90.30;;;;;;4967131;28;20489;-63
2023/09/17 05:34:32;;;;;;;8.18;7.38;;;18.60;90.40;;;;;;4969682;28;20074;-64
2023/09/17 05:36:57;;;;;;;10.73;7.75;;;18.70;90.40;;;;;;4970679;28;20035;-64
2023/09/17 05:39:25;;;;;;;8.38;7.35;;;18.70;90.40;;;;;;4968363;28;20067;-64
2023/09/17 05:41:51;;;;;;;8.05;7.25;;;18.70;90.40;;;;;;4970755;28;20520;-64
2023/09/17 05:44:17;;;;;;;8.23;7.43;;;18.70;90.40;;;;;;4967244;28;20043;-64
2023/09/17 05:46:42;;;;;;;7.88;7.07;;;18.70;90.50;;;;;;4968546;28;20126;-64
2023/09/17 05:49:08;;;;;;;8.93;7.25;;;18.80;90.50;;;;;;4967325;28;20038;-63
2023/09/17 05:51:34;;;;;;;8.43;6.72;;;18.80;90.50;;;;;;4974335;28;20554;-64
2023/09/17 05:53:59;;;;;;;7.93;6.63;;;18.80;90.40;;;;;;4971935;28;20038;-64
2023/09/17 05:56:25;;;;;;;7.78;6.97;;;18.80;90.80;;;;;;4969073;28;20414;-64
2023/09/17 05:58:51;;;;;;;8.50;7.70;;;18.90;90.50;;;;;;4970194;28;20410;-63
2023/09/17 06:01:16;;;;;;;9.45;7.45;;;18.80;90.40;;;;;;4959658;28;20034;-64
2023/09/17 06:03:42;;;;;;;7.93;7.13;;;18.80;90.40;;;;;;4960398;28;20042;-64
2023/09/17 06:06:08;;;;;;;8.40;7.55;;;18.90;90.50;;;;;;4957287;28;22075;-64
2023/09/17 06:08:34;;;;;;;7.45;6.78;;;18.90;90.50;;;;;;4960273;28;20046;-63
2023/09/17 06:11:00;;;;;;;7.70;6.90;;;18.90;90.60;;;;;;4963599;28;20034;-62
2023/09/17 06:13:26;;;;;;;7.50;6.80;;;18.90;90.60;;;;;;4957399;28;20039;-64
2023/09/17 06:15:51;;;;;;;7.65;6.55;;;19.00;90.60;;;;;;4961003;28;20091;-63
2023/09/17 06:18:17;;;;;;;7.00;6.30;;;19.00;90.60;;;;;;4967246;28;20474;-63
2023/09/17 06:20:43;;;;;;;7.63;6.78;;;19.10;90.60;;;;;;4962066;28;20038;-64
2023/09/17 06:23:08;;;;;;;7.25;6.55;;;19.10;90.60;;;;;;4936763;28;20061;-63
2023/09/17 06:25:34;;;;;;;7.65;6.85;;;19.20;90.60;;;;;;4941414;28;20354;-63
2023/09/17 06:27:59;;;;;;;7.60;6.32;;;19.30;90.70;;;;;;4945125;28;20078;-64
2023/09/17 06:30:25;;;;;;;7.45;6.05;;;19.30;90.70;;;;;;4942969;28;20111;-63
2023/09/17 06:32:51;;;;;;;7.95;7.13;;;19.40;90.70;;;;;;4966514;28;20394;-64
2023/09/17 06:35:16;;;;;;;7.10;6.40;;;19.40;90.70;;;;;;4959392;28;20063;-64
2023/09/17 06:37:43;;;;;;;7.53;6.78;;;19.50;90.80;;;;;;4943747;28;20116;-64
2023/09/17 06:40:10;;;;;;;7.03;6.32;;;19.60;90.70;;;;;;4963077;28;20070;-64
2023/09/17 06:42:36;;;;;;;7.55;6.80;;;19.60;90.70;;;;;;4964181;28;20334;-64
2023/09/17 06:45:02;;;;;;;7.32;6.63;;;19.70;90.70;;;;;;4968225;28;20039;-64
2023/09/17 06:47:27;;;;;;;7.55;6.85;;;19.80;90.70;;;;;;4967151;28;20090;-64
2023/09/17 06:49:53;;;;;;;7.22;6.45;;;19.80;90.70;;;;;;4964404;28;20093;-64
2023/09/17 06:52:19;;;;;;;9.45;6.40;;;19.90;90.70;;;;;;4964239;28;21500;-64
2023/09/17 06:54:45;;;;;;;7.50;6.03;;;20.00;90.60;;;;;;4964227;28;20126;-63
2023/09/17 06:57:11;;;;;;;7.50;6.22;;;20.10;90.60;;;;;;4962633;28;20057;-64
2023/09/17 06:59:36;;;;;;;6.47;5.88;;;20.20;90.40;;;;;;4964261;28;20039;-64
2023/09/17 07:02:02;;;;;;;6.80;6.20;;;20.30;90.40;;;;;;4962546;28;20476;-64
2023/09/17 07:04:28;;;;;;;7.35;6.18;;;20.30;90.30;;;;;;4966411;28;20046;-62
2023/09/17 07:06:54;;;;;;;6.68;6.00;;;20.40;90.20;;;;;;4964168;28;20034;-64
2023/09/17 07:09:20;;;;;;;6.32;5.72;;;20.50;90.10;;;;;;4966162;28;20546;-63
2023/09/17 07:11:45;;;;;;;7.70;6.07;;;20.60;90.10;;;;;;4962619;28;20319;-63
2023/09/17 07:14:14;;;;;;;6.82;5.65;;;20.60;90.00;;;;;;4964475;28;20096;-63
2023/09/17 07:16:39;;;;;;;6.32;5.72;;;20.70;90.00;;;;;;4970465;28;20088;-63
2023/09/17 07:19:05;;;;;;;8.27;5.88;;;20.80;89.90;;;;;;4970772;28;20051;-63
2023/09/17 07:21:34;;;;;;;6.60;6.00;;;20.80;89.50;;;;;;4967958;28;20163;-64
2023/09/17 07:23:59;;;;;;;6.50;5.90;;;20.90;89.50;;;;;;4964568;28;20430;-63
2023/09/17 07:26:25;;;;;;;6.32;5.78;;;20.90;89.40;;;;;;4971286;28;20966;-63
2023/09/17 07:28:51;;;;;;;6.28;5.68;;;21.10;89.30;;;;;;4969323;28;20038;-64
2023/09/17 07:31:16;;;;;;;7.45;6.65;;;21.10;89.20;;;;;;4968588;28;20039;-64
2023/09/17 07:33:44;;;;;;;6.07;5.47;;;21.20;89.20;;;;;;4969916;28;20042;-64
2023/09/17 07:36:10;;;;;;;7.43;6.72;;;21.30;89.80;;;;;;4968809;28;20043;-63
2023/09/17 07:38:36;;;;;;;6.50;5.90;;;21.30;88.70;;;;;;4963296;28;20046;-63
2023/09/17 07:41:02;;;;;;;7.10;6.38;;;21.40;88.60;;;;;;4968532;28;20031;-63
2023/09/17 07:43:28;;;;;;;7.93;6.72;;;21.50;88.50;;;;;;4962912;28;20994;-64
2023/09/17 07:45:53;;;;;;;7.35;6.65;;;21.50;88.30;;;;;;4968116;28;20050;-64
2023/09/17 07:48:20;;;;;;;7.63;6.60;;;21.60;88.30;;;;;;4969199;28;20043;-63
2023/09/17 07:50:55;;;;;;;7.40;6.22;;;21.70;88.30;;;;;;4967111;28;20038;-63
2023/09/17 07:53:21;;;;;;;7.15;6.45;;;21.80;88.00;;;;;;4966351;28;20110;-64
2023/09/17 07:55:46;;;;;;;7.15;6.45;;;21.80;88.10;;;;;;4971632;28;20133;-63
2023/09/17 07:58:12;;;;;;;7.70;6.60;;;21.90;88.20;;;;;;4973732;28;20505;-63
2023/09/17 08:00:37;;;;;;;6.93;6.22;;;22.00;88.00;;;;;;4969382;28;20057;-63
2023/09/17 08:03:03;;;;;;;7.03;6.32;;;22.00;88.60;;;;;;4969032;28;20058;-64
2023/09/17 08:05:29;;;;;;;7.78;6.72;;;22.20;87.40;;;;;;4973567;28;20407;-64
2023/09/17 08:07:54;;;;;;;6.45;5.82;;;22.30;87.00;;;;;;4974905;28;20616;-64
2023/09/17 08:10:20;;;;;;;6.32;5.72;;;22.30;86.70;;;;;;4971042;28;20787;-64
2023/09/17 08:12:46;;;;;;;5.22;4.82;;;22.40;86.40;;;;;;4969384;28;20047;-64
2023/09/17 08:15:14;;;;;;;5.65;5.15;;;22.50;85.90;;;;;;4970909;28;20096;-64
2023/09/17 08:17:39;;;;;;;5.68;5.10;;;22.70;85.80;;;;;;4968093;28;20418;-63
2023/09/17 08:20:09;;;;;;;5.22;4.72;;;22.70;86.60;;;;;;4968974;28;20039;-64
2023/09/17 08:22:35;;;;;;;5.10;4.60;;;22.80;85.70;;;;;;4967566;28;20645;-64
2023/09/17 08:25:01;;;;;;;5.00;4.50;;;23.00;85.40;;;;;;4978031;28;20475;-64
2023/09/17 08:27:27;;;;;;;4.60;4.20;;;23.10;84.80;;;;;;4972401;28;20043;-63
2023/09/17 08:29:53;;;;;;;4.10;3.70;;;23.20;84.60;;;;;;4975896;28;20031;-64
2023/09/17 08:32:18;;;;;;;6.25;4.28;;;23.30;83.80;;;;;;4978037;28;20458;-64
2023/09/17 08:34:44;;;;;;;4.32;4.00;;;23.40;83.20;;;;;;4977264;28;20490;-64
2023/09/17 08:37:09;;;;;;;5.78;4.25;;;23.50;82.90;;;;;;4978246;28;20471;-64
2023/09/17 08:39:35;;;;;;;4.07;3.63;;;23.60;82.80;;;;;;4977389;28;20034;-64
2023/09/17 08:42:01;;;;;;;4.07;3.75;;;23.70;82.50;;;;;;4978534;28;20410;-64
2023/09/17 08:44:30;;;;;;;4.00;3.70;;;23.80;82.40;;;;;;4977043;28;20030;-64
2023/09/17 08:46:58;;;;;;;3.83;3.50;;;23.90;81.30;;;;;;4977629;28;20041;-64
2023/09/17 08:49:24;;;;;;;4.35;3.92;;;24.10;81.20;;;;;;4979956;28;20030;-64
2023/09/17 08:51:51;;;;;;;3.70;3.40;;;24.20;80.50;;;;;;4980185;28;20038;-64
2023/09/17 08:54:36;;;;;;;3.70;3.33;;;24.30;79.10;;;;;;4979946;28;20506;-62
2023/09/17 08:57:04;;;;;;;3.75;3.20;;;24.40;77.90;;;;;;4953157;28;20130;-64
2023/09/17 08:59:30;;;;;;;3.65;3.33;;;24.40;78.20;;;;;;4965710;28;20121;-64
2023/09/17 09:02:00;;;;;;;4.53;3.78;;;24.50;78.60;;;;;;4959235;28;20039;-64
2023/09/17 09:04:27;;;;;;;4.25;3.70;;;24.60;78.40;;;;;;4974075;28;20039;-64
2023/09/17 09:06:54;;;;;;;4.32;3.42;;;24.70;78.20;;;;;;4976919;28;20038;-63
2023/09/17 09:09:21;;;;;;;3.70;3.40;;;24.70;77.80;;;;;;4975831;28;20506;-64
2023/09/17 09:11:48;;;;;;;4.00;3.58;;;24.80;77.50;;;;;;4961689;28;20331;-64
2023/09/17 09:14:14;;;;;;;3.42;3.10;;;24.80;77.50;;;;;;4973114;28;20220;-64
2023/09/17 09:16:40;;;;;;;5.53;3.72;;;24.90;77.10;;;;;;4954268;28;20087;-64
2023/09/17 09:19:07;;;;;;;4.50;3.83;;;24.90;76.70;;;;;;4963737;28;20054;-64
2023/09/17 09:21:33;;;;;;;4.45;3.60;;;25.00;76.30;;;;;;4975995;28;20058;-64
2023/09/17 09:23:58;;;;;;;4.05;3.67;;;25.00;76.00;;;;;;4975684;28;20082;-64
2023/09/17 09:26:34;;;;;;;3.88;3.58;;;25.00;75.60;;;;;;4974852;28;20498;-65
2023/09/17 09:29:00;;;;;;;4.55;3.60;;;24.90;74.20;;;;;;4952860;28;20398;-64
2023/09/17 09:31:26;;;;;;;5.15;3.80;;;25.00;75.40;;;;;;4959758;28;20038;-65
2023/09/17 09:33:53;;;;;;;5.13;3.95;;;24.90;76.00;;;;;;4975080;28;20557;-64
2023/09/17 09:36:20;;;;;;;4.70;4.25;;;25.00;76.10;;;;;;4978426;28;20056;-64
2023/09/17 09:38:46;;;;;;;6.38;4.60;;;24.90;75.50;;;;;;4975551;28;20038;-64
2023/09/17 09:41:11;;;;;;;4.65;4.25;;;24.90;75.50;;;;;;4974962;28;20041;-64
2023/09/17 09:43:37;;;;;;;4.68;3.97;;;24.90;75.80;;;;;;4973979;28;20039;-63
2023/09/17 09:46:04;;;;;;;4.97;4.10;;;24.90;75.80;;;;;;4977114;28;20034;-64
2023/09/17 09:48:30;;;;;;;4.88;4.38;;;24.90;76.80;;;;;;4973524;28;20042;-64
2023/09/17 09:50:56;;;;;;;6.50;4.07;;;24.90;75.60;;;;;;4977541;28;20039;-63
2023/09/17 09:53:21;;;;;;;5.85;4.10;;;24.80;75.90;;;;;;4976602;28;20142;-63
2023/09/17 09:55:48;;;;;;;6.53;3.72;;;24.90;75.70;;;;;;4975918;28;20050;-62
2023/09/17 09:58:14;;;;;;;4.60;3.95;;;24.90;75.10;;;;;;4969729;28;20045;-64
2023/09/17 10:00:44;;;;;;;4.30;3.88;;;24.90;75.30;;;;;;4976071;28;20039;-62
2023/09/17 10:03:11;;;;;;;4.22;3.50;;;24.90;75.60;;;;;;4962441;28;20069;-64
2023/09/17 10:05:39;;;;;;;4.05;3.65;;;24.90;75.60;;;;;;4977578;28;20034;-64
2023/09/17 10:08:07;;;;;;;7.13;4.07;;;24.90;75.80;;;;;;4976810;28;20133;-64
2023/09/17 10:10:34;;;;;;;4.32;3.75;;;25.00;75.80;;;;;;4971501;28;20062;-64
2023/09/17 10:13:05;;;;;;;4.53;3.88;;;25.00;75.90;;;;;;4974993;28;20045;-64
2023/09/17 10:15:32;;;;;;;4.80;4.03;;;25.00;75.50;;;;;;4977764;28;20031;-64
2023/09/17 10:18:00;;;;;;;4.90;3.20;;;25.00;74.80;;;;;;4977973;28;20109;-64
2023/09/17 10:20:26;;;;;;;3.38;3.10;;;25.10;75.30;;;;;;4977567;28;20043;-64
2023/09/17 10:22:56;;;;;;;4.05;3.50;;;25.10;75.30;;;;;;4976861;28;20518;-64
2023/09/17 10:25:25;;;;;;;5.45;3.08;;;25.10;74.90;;;;;;4975765;28;20086;-64
2023/09/17 10:27:52;;;;;;;3.35;3.05;;;25.20;74.60;;;;;;4975235;28;20035;-64
2023/09/17 10:30:18;;;;;;;4.05;2.75;;;25.30;74.20;;;;;;4977091;28;20033;-66
2023/09/17 10:32:46;;;;;;;3.13;2.75;;;25.40;74.40;;;;;;4980732;28;20047;-65
2023/09/17 10:35:12;;;;;;;3.80;2.40;;;25.40;74.00;;;;;;4977638;28;20043;-64
2023/09/17 10:37:41;;;;;;;2.38;2.17;;;25.50;72.90;;;;;;4975661;28;20098;-64
2023/09/17 10:40:10;;;;;;;2.67;2.47;;;25.60;72.20;;;;;;4977730;28;20046;-64
2023/09/17 10:42:40;;;;;;;2.25;2.05;;;25.70;72.10;;;;;;4974392;28;20126;-64
2023/09/17 10:45:07;;;;;;;3.10;2.10;;;25.80;71.10;;;;;;4976251;28;20534;-64
2023/09/17 10:47:36;;;;;;;1.85;1.75;;;25.90;70.50;;;;;;4976608;28;20155;-64
2023/09/17 10:50:05;;;;;;;4.15;1.90;;;26.00;69.40;;;;;;4974353;28;20581;-64
2023/09/17 10:52:34;;;;;;;2.80;1.85;;;26.00;68.00;;;;;;4975648;28;20042;-65
2023/09/17 10:55:07;;;;;;;2.28;1.83;;;26.10;68.10;;;;;;4973824;28;20533;-64
2023/09/17 10:57:40;;;;;;;4.65;1.63;;;26.10;68.10;;;;;;4976709;28;20034;-64
2023/09/17 11:00:13;;;;;;;3.28;1.38;;;26.20;66.70;;;;;;4975856;28;20031;-64
2023/09/17 11:02:45;;;;;;;2.85;1.70;;;26.30;67.00;;;;;;4975492;28;20402;-64
2023/09/17 11:05:13;;;;;;;2.00;1.90;;;26.40;66.40;;;;;;4971840;28;20069;-65
2023/09/17 11:07:41;;;;;;;3.70;1.80;;;26.40;65.50;;;;;;4968153;28;20027;-64
2023/09/17 11:10:11;;;;;;;3.22;1.90;;;26.40;65.70;;;;;;4969967;28;20050;-64
2023/09/17 11:12:37;;;;;;;3.42;2.20;;;26.50;65.50;;;;;;4945007;28;20069;-64
2023/09/17 11:15:04;;;;;;;2.30;2.08;;;26.60;66.00;;;;;;4947606;28;20498;-64
2023/09/17 11:17:31;;;;;;;2.55;2.05;;;26.70;65.90;;;;;;4967606;28;20039;-64
2023/09/17 11:19:58;;;;;;;4.50;2.20;;;26.70;66.00;;;;;;4969163;28;20034;-64
2023/09/17 11:22:24;;;;;;;2.78;1.80;;;26.80;66.30;;;;;;4968075;28;20062;-64
2023/09/17 11:24:50;;;;;;;2.08;1.83;;;26.90;66.00;;;;;;4968913;28;20133;-64
2023/09/17 11:27:19;;;;;;;2.28;1.90;;;27.00;66.30;;;;;;4967358;28;20129;-64
2023/09/17 11:29:46;;;;;;;3.50;1.70;;;27.10;65.70;;;;;;4966430;28;20034;-64
2023/09/17 11:32:19;;;;;;;2.40;2.20;;;27.10;65.70;;;;;;4974800;28;20518;-63
2023/09/17 11:34:45;;;;;;;2.83;2.45;;;27.20;65.80;;;;;;4970063;28;20047;-64
2023/09/17 11:37:13;;;;;;;2.25;1.90;;;27.30;66.00;;;;;;4976727;28;20038;-63
2023/09/17 11:39:50;;;;;;;3.70;1.95;;;27.40;65.00;;;;;;4980074;28;20374;-64
2023/09/17 11:42:16;;;;;;;2.42;1.85;;;27.40;64.50;;;;;;4979946;28;20042;-64
2023/09/17 11:44:48;;;;;;;3.05;1.98;;;27.50;64.80;;;;;;4977197;28;20470;-64
2023/09/17 11:47:14;;;;;;;2.95;1.75;;;27.50;64.10;;;;;;4977823;28;20510;-64
2023/09/17 11:49:40;;;;;;;3.25;1.90;;;27.60;64.10;;;;;;4978286;28;20035;-63
2023/09/17 11:52:10;;;;;;;2.67;1.85;;;27.60;64.20;;;;;;4978069;28;20380;-64
2023/09/17 11:54:52;;;;;;;4.47;1.77;;;27.70;63.80;;;;;;4976823;28;20041;-63
2023/09/17 11:57:25;;;;;;;2.95;1.60;;;27.70;62.40;;;;;;4976282;28;20043;-64
2023/09/17 11:59:50;;;;;;;3.80;1.40;;;27.70;61.50;;;;;;4980046;28;20062;-64
2023/09/17 12:02:17;;;;;;;2.10;1.50;;;27.80;62.20;;;;;;4980928;28;20506;-64
2023/09/17 12:04:43;;;;;;;3.53;1.30;;;27.80;61.50;;;;;;4976870;28;20030;-64
2023/09/17 12:07:11;;;;;;;3.13;1.25;;;27.80;61.00;;;;;;4978714;28;20170;-63
2023/09/17 12:10:00;;;;;;;2.65;1.35;;;27.90;60.00;;;;;;4977487;28;20038;-64
2023/09/17 12:12:28;;;;;;;2.70;1.23;;;27.90;58.80;;;;;;4975370;28;20037;-63
2023/09/17 12:14:54;;;;;;;2.00;1.13;;;27.90;59.80;;;;;;4976201;28;20469;-64
2023/09/17 12:17:20;;;;;;;1.85;1.20;;;28.00;59.90;;;;;;4979629;28;20045;-64
2023/09/17 12:19:57;;;;;;;3.60;1.55;;;28.00;59.60;;;;;;4977789;28;20030;-64
2023/09/17 12:22:24;;;;;;;3.85;1.30;;;28.10;59.00;;;;;;4977556;28;20118;-64
2023/09/17 12:25:03;;;;;;;1.35;1.25;;;28.20;59.40;;;;;;4977338;28;20031;-64
2023/09/17 12:29:57;;;;;;;3.42;1.33;;;28.30;59.30;;;;;;4977512;28;20034;-63
2023/09/17 12:32:25;;;;;;;2.72;1.27;;;28.30;59.00;;;;;;4976650;28;20041;-64
2023/09/17 12:34:52;;;;;;;2.35;1.20;;;28.30;58.60;;;;;;4957824;28;20063;-64
2023/09/17 12:37:19;;;;;;;2.80;1.38;;;28.40;58.70;;;;;;4956306;28;20446;-64
2023/09/17 12:39:46;;;;;;;2.38;1.13;;;28.40;58.40;;;;;;4967071;28;20376;-64
2023/09/17 12:42:12;;;;;;;4.10;1.30;;;28.40;58.50;;;;;;4976569;28;20054;-64
2023/09/17 12:44:38;;;;;;;4.63;1.25;;;28.40;58.60;;;;;;4960577;28;20031;-64
2023/09/17 12:47:05;;;;;;;2.80;1.50;;;28.50;58.40;;;;;;4962390;28;20082;-64
2023/09/17 12:49:30;;;;;;;4.10;1.50;;;28.50;58.20;;;;;;4976694;28;20094;-64
2023/09/17 12:51:56;;;;;;;2.80;1.20;;;28.60;58.00;;;;;;4977652;28;20042;-63